Impacts METAR Board
IDs:

KCNW - Waco/Texas State Tec, TX, US

Updated at: 1700 UTC 16 Oct 2021
Potential Impact None Slight Moderate High
Time 16/05Z 16/06Z 16/07Z 16/08Z 16/09Z 16/10Z 16/11Z 16/12Z 16/13Z 16/14Z 16/15Z 16/16Z 16/17Z
Temp 48 48 55 64 66 70
Dewpt 46 45 46 46 43 34
Altim 30.31 30.34 30.37 30.38 30.40 30.39
VIS 10 10 10 10 10 10
CIG -- -- -- -- -- --
CoverSKCSKCSKCSKCSKCSKC
FltCatVFRVFRVFRVFRVFRVFR
WX------------
WDir34034035035035020
WSpd 4 4 6 5 5 11
WGst -- -- -- -- -- 15
Raw hourly METARs







KCNW 161155Z 34004KT 10SM SKC 09/08 A3031
KCNW 161255Z 34004KT 10SM SKC 09/07 A3034
KCNW 161355Z 35006KT 10SM SKC 13/08 A3037
KCNW 161455Z 35005KT 10SM SKC 18/08 A3038
KCNW 161555Z 35005KT 10SM SKC 19/06 A3040
KCNW 161655Z 02011G15KT 10SM SKC 21/01 A3039